sensor_id;sensor_type;location;lat;lon;timestamp;temperature;humidity
43338;DHT22;28933;52.492;13.434;2023-12-20T00:00:11;9.70;99.90
43338;DHT22;28933;52.492;13.434;2023-12-20T00:02:56;9.70;99.90
43338;DHT22;28933;52.492;13.434;2023-12-20T00:05:42;9.70;99.90
43338;DHT22;28933;52.492;13.434;2023-12-20T00:08:28;9.70;99.90
43338;DHT22;28933;52.492;13.434;2023-12-20T00:11:14;9.70;99.90
43338;DHT22;28933;52.492;13.434;2023-12-20T00:14:00;9.70;99.90
43338;DHT22;28933;52.492;13.434;2023-12-20T00:16:46;9.70;99.90
43338;DHT22;28933;52.492;13.434;2023-12-20T00:19:32;9.70;99.90
43338;DHT22;28933;52.492;13.434;2023-12-20T00:22:18;9.60;99.90
43338;DHT22;28933;52.492;13.434;2023-12-20T00:25:04;9.70;99.90
43338;DHT22;28933;52.492;13.434;2023-12-20T00:27:50;9.70;99.90
43338;DHT22;28933;52.492;13.434;2023-12-20T00:30:36;9.70;99.90
43338;DHT22;28933;52.492;13.434;2023-12-20T00:33:22;9.70;99.90
43338;DHT22;28933;52.492;13.434;2023-12-20T00:36:08;9.70;99.90
43338;DHT22;28933;52.492;13.434;2023-12-20T00:38:54;9.70;99.90
43338;DHT22;28933;52.492;13.434;2023-12-20T00:41:40;9.60;99.90
43338;DHT22;28933;52.492;13.434;2023-12-20T00:44:26;9.60;99.90
43338;DHT22;28933;52.492;13.434;2023-12-20T00:47:12;9.70;99.90
43338;DHT22;28933;52.492;13.434;2023-12-20T00:49:59;9.70;99.90
43338;DHT22;28933;52.492;13.434;2023-12-20T00:52:44;9.70;99.90
43338;DHT22;28933;52.492;13.434;2023-12-20T00:55:31;9.70;99.90
43338;DHT22;28933;52.492;13.434;2023-12-20T00:58:17;9.70;99.90
43338;DHT22;28933;52.492;13.434;2023-12-20T01:01:03;9.70;99.90
43338;DHT22;28933;52.492;13.434;2023-12-20T01:03:51;9.70;99.90
43338;DHT22;28933;52.492;13.434;2023-12-20T01:06:37;9.70;99.90
43338;DHT22;28933;52.492;13.434;2023-12-20T01:09:23;9.70;99.90
43338;DHT22;28933;52.492;13.434;2023-12-20T01:12:12;9.70;99.90
43338;DHT22;28933;52.492;13.434;2023-12-20T01:14:58;9.70;99.90
43338;DHT22;28933;52.492;13.434;2023-12-20T01:17:44;9.70;99.90
43338;DHT22;28933;52.492;13.434;2023-12-20T01:20:30;9.70;99.90
43338;DHT22;28933;52.492;13.434;2023-12-20T01:23:16;9.70;99.90
43338;DHT22;28933;52.492;13.434;2023-12-20T01:26:02;9.60;99.90
43338;DHT22;28933;52.492;13.434;2023-12-20T01:28:48;9.60;99.90
43338;DHT22;28933;52.492;13.434;2023-12-20T01:31:34;9.70;99.90
43338;DHT22;28933;52.492;13.434;2023-12-20T01:34:20;9.60;99.90
43338;DHT22;28933;52.492;13.434;2023-12-20T01:37:06;9.60;99.90
43338;DHT22;28933;52.492;13.434;2023-12-20T01:39:52;9.60;99.90
43338;DHT22;28933;52.492;13.434;2023-12-20T01:42:38;9.60;99.90
43338;DHT22;28933;52.492;13.434;2023-12-20T01:45:24;9.60;99.90
43338;DHT22;28933;52.492;13.434;2023-12-20T01:48:10;9.60;99.90
43338;DHT22;28933;52.492;13.434;2023-12-20T01:50:56;9.60;99.90
43338;DHT22;28933;52.492;13.434;2023-12-20T01:53:43;9.60;99.90
43338;DHT22;28933;52.492;13.434;2023-12-20T01:56:30;9.60;99.90
43338;DHT22;28933;52.492;13.434;2023-12-20T01:59:19;9.60;99.90
43338;DHT22;28933;52.492;13.434;2023-12-20T02:02:07;9.70;99.90
43338;DHT22;28933;52.492;13.434;2023-12-20T02:04:53;9.60;99.90
43338;DHT22;28933;52.492;13.434;2023-12-20T02:07:39;9.60;99.90
43338;DHT22;28933;52.492;13.434;2023-12-20T02:10:25;9.60;99.90
43338;DHT22;28933;52.492;13.434;2023-12-20T02:13:11;9.60;99.90
43338;DHT22;28933;52.492;13.434;2023-12-20T02:15:57;9.60;99.90
43338;DHT22;28933;52.492;13.434;2023-12-20T02:18:44;9.70;99.90
43338;DHT22;28933;52.492;13.434;2023-12-20T02:21:33;9.60;99.90
43338;DHT22;28933;52.492;13.434;2023-12-20T02:24:20;9.60;99.90
43338;DHT22;28933;52.492;13.434;2023-12-20T02:27:07;9.60;99.90
43338;DHT22;28933;52.492;13.434;2023-12-20T02:29:53;9.60;99.90
43338;DHT22;28933;52.492;13.434;2023-12-20T02:32:39;9.60;99.90
43338;DHT22;28933;52.492;13.434;2023-12-20T02:35:25;9.60;99.90
43338;DHT22;28933;52.492;13.434;2023-12-20T02:38:11;9.70;99.90
43338;DHT22;28933;52.492;13.434;2023-12-20T02:40:57;9.70;99.90
43338;DHT22;28933;52.492;13.434;2023-12-20T02:43:43;9.70;99.90
43338;DHT22;28933;52.492;13.434;2023-12-20T02:46:29;9.70;99.90
43338;DHT22;28933;52.492;13.434;2023-12-20T02:49:15;9.70;99.90
43338;DHT22;28933;52.492;13.434;2023-12-20T02:52:01;9.80;99.90
43338;DHT22;28933;52.492;13.434;2023-12-20T02:54:47;9.70;99.90
43338;DHT22;28933;52.492;13.434;2023-12-20T02:57:33;9.70;99.90
43338;DHT22;28933;52.492;13.434;2023-12-20T03:00:21;9.60;99.90
43338;DHT22;28933;52.492;13.434;2023-12-20T03:03:07;9.60;99.90
43338;DHT22;28933;52.492;13.434;2023-12-20T03:05:53;9.70;99.90
43338;DHT22;28933;52.492;13.434;2023-12-20T03:08:39;9.60;99.90
43338;DHT22;28933;52.492;13.434;2023-12-20T03:11:27;9.70;99.90
43338;DHT22;28933;52.492;13.434;2023-12-20T03:14:13;9.60;99.90
43338;DHT22;28933;52.492;13.434;2023-12-20T03:16:59;9.60;99.90
43338;DHT22;28933;52.492;13.434;2023-12-20T03:19:45;9.60;99.90
43338;DHT22;28933;52.492;13.434;2023-12-20T03:22:31;9.50;99.90
43338;DHT22;28933;52.492;13.434;2023-12-20T03:25:17;9.50;99.90
43338;DHT22;28933;52.492;13.434;2023-12-20T03:28:03;9.50;99.90
43338;DHT22;28933;52.492;13.434;2023-12-20T03:30:49;9.50;99.90
43338;DHT22;28933;52.492;13.434;2023-12-20T03:33:35;9.50;99.90
43338;DHT22;28933;52.492;13.434;2023-12-20T03:36:21;9.40;99.90
43338;DHT22;28933;52.492;13.434;2023-12-20T03:39:07;9.40;99.90
43338;DHT22;28933;52.492;13.434;2023-12-20T03:41:53;9.40;99.90
43338;DHT22;28933;52.492;13.434;2023-12-20T03:44:39;9.40;99.90
43338;DHT22;28933;52.492;13.434;2023-12-20T03:47:28;9.40;99.90
43338;DHT22;28933;52.492;13.434;2023-12-20T03:50:14;9.40;99.90
43338;DHT22;28933;52.492;13.434;2023-12-20T03:53:00;9.40;99.90
43338;DHT22;28933;52.492;13.434;2023-12-20T03:55:46;9.30;99.90
43338;DHT22;28933;52.492;13.434;2023-12-20T03:58:32;9.30;99.90
43338;DHT22;28933;52.492;13.434;2023-12-20T04:01:18;9.20;99.90
43338;DHT22;28933;52.492;13.434;2023-12-20T04:04:03;9.30;99.90
43338;DHT22;28933;52.492;13.434;2023-12-20T04:06:49;9.20;99.90
43338;DHT22;28933;52.492;13.434;2023-12-20T04:09:35;9.20;99.90
43338;DHT22;28933;52.492;13.434;2023-12-20T04:12:21;9.20;99.90
43338;DHT22;28933;52.492;13.434;2023-12-20T04:15:07;9.20;99.90
43338;DHT22;28933;52.492;13.434;2023-12-20T04:17:55;9.20;99.90
43338;DHT22;28933;52.492;13.434;2023-12-20T04:20:41;9.10;99.90
43338;DHT22;28933;52.492;13.434;2023-12-20T04:23:27;9.10;99.90
43338;DHT22;28933;52.492;13.434;2023-12-20T04:26:13;9.10;99.90
43338;DHT22;28933;52.492;13.434;2023-12-20T04:28:59;9.10;99.90
43338;DHT22;28933;52.492;13.434;2023-12-20T04:31:45;9.10;99.90
43338;DHT22;28933;52.492;13.434;2023-12-20T04:34:31;9.10;99.90
43338;DHT22;28933;52.492;13.434;2023-12-20T04:37:17;9.10;99.90
43338;DHT22;28933;52.492;13.434;2023-12-20T04:40:03;9.10;99.90
43338;DHT22;28933;52.492;13.434;2023-12-20T04:42:51;9.00;99.90
43338;DHT22;28933;52.492;13.434;2023-12-20T04:45:36;9.00;99.90
43338;DHT22;28933;52.492;13.434;2023-12-20T04:48:22;9.00;99.90
43338;DHT22;28933;52.492;13.434;2023-12-20T04:51:08;8.90;99.90
43338;DHT22;28933;52.492;13.434;2023-12-20T04:53:54;8.90;99.90
43338;DHT22;28933;52.492;13.434;2023-12-20T04:56:41;8.90;99.90
43338;DHT22;28933;52.492;13.434;2023-12-20T04:59:27;8.80;99.90
43338;DHT22;28933;52.492;13.434;2023-12-20T05:02:13;8.80;99.90
43338;DHT22;28933;52.492;13.434;2023-12-20T05:04:59;8.70;99.90
43338;DHT22;28933;52.492;13.434;2023-12-20T05:07:45;8.70;99.90
43338;DHT22;28933;52.492;13.434;2023-12-20T05:10:30;8.70;99.90
43338;DHT22;28933;52.492;13.434;2023-12-20T05:13:17;8.70;99.90
43338;DHT22;28933;52.492;13.434;2023-12-20T05:16:03;8.70;99.90
43338;DHT22;28933;52.492;13.434;2023-12-20T05:18:49;8.70;99.90
43338;DHT22;28933;52.492;13.434;2023-12-20T05:21:36;8.80;99.90
43338;DHT22;28933;52.492;13.434;2023-12-20T05:24:22;8.70;99.90
43338;DHT22;28933;52.492;13.434;2023-12-20T05:27:07;8.70;99.90
43338;DHT22;28933;52.492;13.434;2023-12-20T05:29:53;8.70;99.90
43338;DHT22;28933;52.492;13.434;2023-12-20T05:32:43;8.70;99.90
43338;DHT22;28933;52.492;13.434;2023-12-20T05:35:29;8.60;99.90
43338;DHT22;28933;52.492;13.434;2023-12-20T05:38:14;8.60;99.90
43338;DHT22;28933;52.492;13.434;2023-12-20T05:41:00;8.50;99.90
43338;DHT22;28933;52.492;13.434;2023-12-20T05:43:46;8.60;99.90
43338;DHT22;28933;52.492;13.434;2023-12-20T05:46:32;8.50;99.90
43338;DHT22;28933;52.492;13.434;2023-12-20T05:49:18;8.40;99.90
43338;DHT22;28933;52.492;13.434;2023-12-20T05:52:04;8.40;99.90
43338;DHT22;28933;52.492;13.434;2023-12-20T05:54:50;8.30;99.90
43338;DHT22;28933;52.492;13.434;2023-12-20T05:57:36;8.30;99.90
43338;DHT22;28933;52.492;13.434;2023-12-20T06:00:22;8.20;99.90
43338;DHT22;28933;52.492;13.434;2023-12-20T06:03:08;8.20;99.90
43338;DHT22;28933;52.492;13.434;2023-12-20T06:05:54;8.10;99.90
43338;DHT22;28933;52.492;13.434;2023-12-20T06:08:41;8.10;99.90
43338;DHT22;28933;52.492;13.434;2023-12-20T06:11:27;8.10;99.90
43338;DHT22;28933;52.492;13.434;2023-12-20T06:14:13;8.10;99.90
43338;DHT22;28933;52.492;13.434;2023-12-20T06:16:59;8.10;99.90
43338;DHT22;28933;52.492;13.434;2023-12-20T06:19:45;8.00;99.90
43338;DHT22;28933;52.492;13.434;2023-12-20T06:22:34;8.00;99.90
43338;DHT22;28933;52.492;13.434;2023-12-20T06:25:20;8.00;99.90
43338;DHT22;28933;52.492;13.434;2023-12-20T06:28:06;8.00;99.90
43338;DHT22;28933;52.492;13.434;2023-12-20T06:30:52;8.00;99.90
43338;DHT22;28933;52.492;13.434;2023-12-20T06:33:40;8.00;99.90
43338;DHT22;28933;52.492;13.434;2023-12-20T06:36:28;8.10;99.90
43338;DHT22;28933;52.492;13.434;2023-12-20T06:39:14;8.10;99.90
43338;DHT22;28933;52.492;13.434;2023-12-20T06:42:00;8.00;99.90
43338;DHT22;28933;52.492;13.434;2023-12-20T06:44:46;8.00;99.90
43338;DHT22;28933;52.492;13.434;2023-12-20T06:47:32;8.10;99.90
43338;DHT22;28933;52.492;13.434;2023-12-20T06:50:18;8.00;99.90
43338;DHT22;28933;52.492;13.434;2023-12-20T06:53:04;8.10;99.90
43338;DHT22;28933;52.492;13.434;2023-12-20T06:55:52;8.00;99.90
43338;DHT22;28933;52.492;13.434;2023-12-20T06:58:38;8.10;99.90
43338;DHT22;28933;52.492;13.434;2023-12-20T07:01:24;8.00;99.90
43338;DHT22;28933;52.492;13.434;2023-12-20T07:04:10;8.10;99.90
43338;DHT22;28933;52.492;13.434;2023-12-20T07:06:56;8.10;99.90
43338;DHT22;28933;52.492;13.434;2023-12-20T07:09:45;8.10;99.90
43338;DHT22;28933;52.492;13.434;2023-12-20T07:12:31;8.10;99.90
43338;DHT22;28933;52.492;13.434;2023-12-20T07:15:17;8.00;99.90
43338;DHT22;28933;52.492;13.434;2023-12-20T07:18:04;8.10;99.90
43338;DHT22;28933;52.492;13.434;2023-12-20T07:20:51;8.10;99.90
43338;DHT22;28933;52.492;13.434;2023-12-20T07:23:37;8.20;99.90
43338;DHT22;28933;52.492;13.434;2023-12-20T07:26:22;8.20;99.90
43338;DHT22;28933;52.492;13.434;2023-12-20T07:29:09;8.20;99.90
43338;DHT22;28933;52.492;13.434;2023-12-20T07:31:55;8.20;99.90
43338;DHT22;28933;52.492;13.434;2023-12-20T07:34:41;8.20;99.90
43338;DHT22;28933;52.492;13.434;2023-12-20T07:37:26;8.30;99.90
43338;DHT22;28933;52.492;13.434;2023-12-20T07:40:15;8.20;99.90
43338;DHT22;28933;52.492;13.434;2023-12-20T07:43:02;8.20;99.90
43338;DHT22;28933;52.492;13.434;2023-12-20T07:45:49;8.30;99.90
43338;DHT22;28933;52.492;13.434;2023-12-20T07:48:35;8.20;99.90
43338;DHT22;28933;52.492;13.434;2023-12-20T07:51:21;8.30;99.90
43338;DHT22;28933;52.492;13.434;2023-12-20T07:54:07;8.30;99.90
43338;DHT22;28933;52.492;13.434;2023-12-20T07:56:53;8.30;99.90
43338;DHT22;28933;52.492;13.434;2023-12-20T07:59:39;8.30;99.90
43338;DHT22;28933;52.492;13.434;2023-12-20T08:02:25;8.30;99.90
43338;DHT22;28933;52.492;13.434;2023-12-20T08:05:11;8.40;99.90
43338;DHT22;28933;52.492;13.434;2023-12-20T08:07:57;8.40;99.90
43338;DHT22;28933;52.492;13.434;2023-12-20T08:10:43;8.30;99.90
43338;DHT22;28933;52.492;13.434;2023-12-20T08:13:29;8.40;99.90
43338;DHT22;28933;52.492;13.434;2023-12-20T08:16:15;8.40;99.90
43338;DHT22;28933;52.492;13.434;2023-12-20T08:19:03;8.40;99.90
43338;DHT22;28933;52.492;13.434;2023-12-20T08:21:49;8.40;99.90
43338;DHT22;28933;52.492;13.434;2023-12-20T08:24:35;8.50;99.90
43338;DHT22;28933;52.492;13.434;2023-12-20T08:27:20;8.50;99.90
43338;DHT22;28933;52.492;13.434;2023-12-20T08:30:08;8.40;99.90
43338;DHT22;28933;52.492;13.434;2023-12-20T08:32:54;8.40;99.90
43338;DHT22;28933;52.492;13.434;2023-12-20T08:35:40;8.50;99.90
43338;DHT22;28933;52.492;13.434;2023-12-20T08:38:26;8.50;99.90
43338;DHT22;28933;52.492;13.434;2023-12-20T08:41:12;8.50;99.90
43338;DHT22;28933;52.492;13.434;2023-12-20T08:43:58;8.50;99.90
43338;DHT22;28933;52.492;13.434;2023-12-20T08:46:44;8.50;99.90
43338;DHT22;28933;52.492;13.434;2023-12-20T08:49:30;8.60;99.90
43338;DHT22;28933;52.492;13.434;2023-12-20T08:52:16;8.50;99.90
43338;DHT22;28933;52.492;13.434;2023-12-20T08:55:03;8.60;99.90
43338;DHT22;28933;52.492;13.434;2023-12-20T08:57:49;8.60;99.90
43338;DHT22;28933;52.492;13.434;2023-12-20T09:00:36;8.70;99.90
43338;DHT22;28933;52.492;13.434;2023-12-20T09:03:22;8.70;99.90
43338;DHT22;28933;52.492;13.434;2023-12-20T09:06:08;8.60;99.90
43338;DHT22;28933;52.492;13.434;2023-12-20T09:08:54;8.70;99.90
43338;DHT22;28933;52.492;13.434;2023-12-20T09:11:40;8.70;99.90
43338;DHT22;28933;52.492;13.434;2023-12-20T09:14:26;8.70;99.90
43338;DHT22;28933;52.492;13.434;2023-12-20T09:17:12;8.80;99.90
43338;DHT22;28933;52.492;13.434;2023-12-20T09:19:58;8.80;99.90
43338;DHT22;28933;52.492;13.434;2023-12-20T09:22:45;8.80;99.90
43338;DHT22;28933;52.492;13.434;2023-12-20T09:25:31;8.90;99.90
43338;DHT22;28933;52.492;13.434;2023-12-20T09:28:17;8.90;99.90
43338;DHT22;28933;52.492;13.434;2023-12-20T09:31:04;8.90;99.90
43338;DHT22;28933;52.492;13.434;2023-12-20T09:33:50;8.90;99.90
43338;DHT22;28933;52.492;13.434;2023-12-20T09:36:36;9.00;99.90
43338;DHT22;28933;52.492;13.434;2023-12-20T09:39:24;9.00;99.90
43338;DHT22;28933;52.492;13.434;2023-12-20T09:42:12;9.00;99.90
43338;DHT22;28933;52.492;13.434;2023-12-20T09:45:02;9.00;99.90
43338;DHT22;28933;52.492;13.434;2023-12-20T09:47:55;9.10;99.90
43338;DHT22;28933;52.492;13.434;2023-12-20T09:50:43;9.10;99.90
43338;DHT22;28933;52.492;13.434;2023-12-20T09:53:31;9.10;99.90
43338;DHT22;28933;52.492;13.434;2023-12-20T09:56:19;9.10;99.90
43338;DHT22;28933;52.492;13.434;2023-12-20T09:59:04;9.10;99.90
43338;DHT22;28933;52.492;13.434;2023-12-20T10:01:51;9.20;99.90
43338;DHT22;28933;52.492;13.434;2023-12-20T10:04:46;9.20;99.90
43338;DHT22;28933;52.492;13.434;2023-12-20T10:07:32;9.10;99.90
43338;DHT22;28933;52.492;13.434;2023-12-20T10:10:18;9.20;99.90
43338;DHT22;28933;52.492;13.434;2023-12-20T10:13:09;9.20;99.90
43338;DHT22;28933;52.492;13.434;2023-12-20T10:15:55;9.20;99.90
43338;DHT22;28933;52.492;13.434;2023-12-20T10:18:42;9.20;99.90
43338;DHT22;28933;52.492;13.434;2023-12-20T10:21:28;9.20;99.90
43338;DHT22;28933;52.492;13.434;2023-12-20T10:24:17;9.20;99.90
43338;DHT22;28933;52.492;13.434;2023-12-20T10:27:05;9.20;99.90
43338;DHT22;28933;52.492;13.434;2023-12-20T10:29:51;9.20;99.90
43338;DHT22;28933;52.492;13.434;2023-12-20T10:32:37;9.20;99.90
43338;DHT22;28933;52.492;13.434;2023-12-20T10:35:23;9.20;99.90
43338;DHT22;28933;52.492;13.434;2023-12-20T10:38:10;9.20;99.90
43338;DHT22;28933;52.492;13.434;2023-12-20T10:40:57;9.20;99.90
43338;DHT22;28933;52.492;13.434;2023-12-20T10:43:47;9.20;99.90
43338;DHT22;28933;52.492;13.434;2023-12-20T10:46:34;9.20;99.90
43338;DHT22;28933;52.492;13.434;2023-12-20T10:49:20;9.20;99.90
43338;DHT22;28933;52.492;13.434;2023-12-20T10:52:08;9.20;99.90
43338;DHT22;28933;52.492;13.434;2023-12-20T10:54:54;9.20;99.90
43338;DHT22;28933;52.492;13.434;2023-12-20T10:57:41;9.30;99.90
43338;DHT22;28933;52.492;13.434;2023-12-20T11:00:29;9.30;99.90
43338;DHT22;28933;52.492;13.434;2023-12-20T11:03:18;9.30;99.90
43338;DHT22;28933;52.492;13.434;2023-12-20T11:09:20;9.30;99.90
43338;DHT22;28933;52.492;13.434;2023-12-20T11:12:22;9.30;99.90
43338;DHT22;28933;52.492;13.434;2023-12-20T11:15:12;9.30;99.90
43338;DHT22;28933;52.492;13.434;2023-12-20T11:17:59;9.40;99.90
43338;DHT22;28933;52.492;13.434;2023-12-20T11:20:44;9.40;99.90
43338;DHT22;28933;52.492;13.434;2023-12-20T11:23:34;9.30;99.90
43338;DHT22;28933;52.492;13.434;2023-12-20T11:26:26;9.40;99.90
43338;DHT22;28933;52.492;13.434;2023-12-20T11:29:35;9.30;99.90
43338;DHT22;28933;52.492;13.434;2023-12-20T11:37:57;9.40;99.90
43338;DHT22;28933;52.492;13.434;2023-12-20T11:40:44;9.30;99.90
43338;DHT22;28933;52.492;13.434;2023-12-20T11:43:36;9.40;99.90
43338;DHT22;28933;52.492;13.434;2023-12-20T11:46:22;9.30;99.90
43338;DHT22;28933;52.492;13.434;2023-12-20T11:49:09;9.40;99.90
43338;DHT22;28933;52.492;13.434;2023-12-20T11:51:55;9.30;99.90
43338;DHT22;28933;52.492;13.434;2023-12-20T11:54:41;9.40;99.90
43338;DHT22;28933;52.492;13.434;2023-12-20T11:57:27;9.40;99.90
43338;DHT22;28933;52.492;13.434;2023-12-20T12:00:13;9.30;99.90
43338;DHT22;28933;52.492;13.434;2023-12-20T12:02:59;9.30;99.90
43338;DHT22;28933;52.492;13.434;2023-12-20T12:05:47;9.30;99.90
43338;DHT22;28933;52.492;13.434;2023-12-20T12:08:35;9.30;99.90
43338;DHT22;28933;52.492;13.434;2023-12-20T12:11:22;9.30;99.90
43338;DHT22;28933;52.492;13.434;2023-12-20T12:14:08;9.30;99.90
43338;DHT22;28933;52.492;13.434;2023-12-20T12:16:54;9.30;99.90
43338;DHT22;28933;52.492;13.434;2023-12-20T12:19:41;9.40;99.90
43338;DHT22;28933;52.492;13.434;2023-12-20T12:22:27;9.40;99.90
43338;DHT22;28933;52.492;13.434;2023-12-20T12:25:13;9.40;99.90
43338;DHT22;28933;52.492;13.434;2023-12-20T12:28:00;9.40;99.90
43338;DHT22;28933;52.492;13.434;2023-12-20T12:30:59;9.40;99.90
43338;DHT22;28933;52.492;13.434;2023-12-20T12:33:45;9.40;99.90
43338;DHT22;28933;52.492;13.434;2023-12-20T12:36:32;9.40;99.90
43338;DHT22;28933;52.492;13.434;2023-12-20T12:39:18;9.40;99.90
43338;DHT22;28933;52.492;13.434;2023-12-20T12:42:04;9.30;99.90
43338;DHT22;28933;52.492;13.434;2023-12-20T12:44:50;9.30;99.90
43338;DHT22;28933;52.492;13.434;2023-12-20T12:47:36;9.30;99.90
43338;DHT22;28933;52.492;13.434;2023-12-20T12:50:22;9.20;99.90
43338;DHT22;28933;52.492;13.434;2023-12-20T12:53:08;9.20;99.90
43338;DHT22;28933;52.492;13.434;2023-12-20T12:55:54;9.20;99.90
43338;DHT22;28933;52.492;13.434;2023-12-20T12:58:41;9.20;99.90
43338;DHT22;28933;52.492;13.434;2023-12-20T13:01:27;9.20;99.90
43338;DHT22;28933;52.492;13.434;2023-12-20T13:04:13;9.20;99.90
43338;DHT22;28933;52.492;13.434;2023-12-20T13:06:59;9.20;99.90
43338;DHT22;28933;52.492;13.434;2023-12-20T13:09:45;9.10;99.90
43338;DHT22;28933;52.492;13.434;2023-12-20T13:12:31;9.10;99.90
43338;DHT22;28933;52.492;13.434;2023-12-20T13:15:17;9.10;99.90
43338;DHT22;28933;52.492;13.434;2023-12-20T13:18:04;9.10;99.90
43338;DHT22;28933;52.492;13.434;2023-12-20T13:20:51;9.00;99.90
43338;DHT22;28933;52.492;13.434;2023-12-20T13:23:37;9.00;99.90
43338;DHT22;28933;52.492;13.434;2023-12-20T13:26:23;9.00;99.90
43338;DHT22;28933;52.492;13.434;2023-12-20T13:29:09;8.90;99.90
43338;DHT22;28933;52.492;13.434;2023-12-20T13:31:55;8.80;99.90
43338;DHT22;28933;52.492;13.434;2023-12-20T13:34:42;8.70;99.90
43338;DHT22;28933;52.492;13.434;2023-12-20T13:37:28;8.60;99.90
43338;DHT22;28933;52.492;13.434;2023-12-20T13:40:14;8.50;99.90
43338;DHT22;28933;52.492;13.434;2023-12-20T13:43:00;8.50;99.90
43338;DHT22;28933;52.492;13.434;2023-12-20T13:45:48;8.40;99.90
43338;DHT22;28933;52.492;13.434;2023-12-20T13:48:34;8.40;99.90
43338;DHT22;28933;52.492;13.434;2023-12-20T13:51:20;8.40;99.90
43338;DHT22;28933;52.492;13.434;2023-12-20T13:54:06;8.40;99.90
43338;DHT22;28933;52.492;13.434;2023-12-20T13:56:52;8.30;99.90
43338;DHT22;28933;52.492;13.434;2023-12-20T13:59:38;8.30;99.90
43338;DHT22;28933;52.492;13.434;2023-12-20T14:02:24;8.20;99.90
43338;DHT22;28933;52.492;13.434;2023-12-20T14:05:12;8.20;99.90
43338;DHT22;28933;52.492;13.434;2023-12-20T14:08:00;8.20;99.90
43338;DHT22;28933;52.492;13.434;2023-12-20T14:10:46;8.20;99.90
43338;DHT22;28933;52.492;13.434;2023-12-20T14:13:32;8.10;99.90
43338;DHT22;28933;52.492;13.434;2023-12-20T14:16:18;8.00;99.90
43338;DHT22;28933;52.492;13.434;2023-12-20T14:19:08;7.90;99.90
43338;DHT22;28933;52.492;13.434;2023-12-20T14:21:55;7.90;99.90
43338;DHT22;28933;52.492;13.434;2023-12-20T14:24:41;7.90;99.90
43338;DHT22;28933;52.492;13.434;2023-12-20T14:27:27;7.90;99.90
43338;DHT22;28933;52.492;13.434;2023-12-20T14:30:13;7.80;99.90
43338;DHT22;28933;52.492;13.434;2023-12-20T14:33:00;7.80;99.90
43338;DHT22;28933;52.492;13.434;2023-12-20T14:35:46;7.70;99.90
43338;DHT22;28933;52.492;13.434;2023-12-20T14:38:32;7.70;99.90
43338;DHT22;28933;52.492;13.434;2023-12-20T14:41:18;7.70;99.90
43338;DHT22;28933;52.492;13.434;2023-12-20T14:44:04;7.60;99.90
43338;DHT22;28933;52.492;13.434;2023-12-20T14:46:51;7.70;99.90
43338;DHT22;28933;52.492;13.434;2023-12-20T14:49:37;7.60;99.90
43338;DHT22;28933;52.492;13.434;2023-12-20T14:52:23;7.70;99.90
43338;DHT22;28933;52.492;13.434;2023-12-20T14:55:09;7.70;99.90
43338;DHT22;28933;52.492;13.434;2023-12-20T14:57:55;7.60;99.90
43338;DHT22;28933;52.492;13.434;2023-12-20T15:00:41;7.70;99.90
43338;DHT22;28933;52.492;13.434;2023-12-20T15:03:28;7.60;99.90
43338;DHT22;28933;52.492;13.434;2023-12-20T15:06:15;7.70;99.90
43338;DHT22;28933;52.492;13.434;2023-12-20T15:09:01;7.70;99.90
43338;DHT22;28933;52.492;13.434;2023-12-20T15:11:51;7.70;99.90
43338;DHT22;28933;52.492;13.434;2023-12-20T15:14:37;7.70;99.90
43338;DHT22;28933;52.492;13.434;2023-12-20T15:17:23;7.60;99.90
43338;DHT22;28933;52.492;13.434;2023-12-20T15:20:09;7.70;99.90
43338;DHT22;28933;52.492;13.434;2023-12-20T15:22:56;7.70;99.90
43338;DHT22;28933;52.492;13.434;2023-12-20T15:25:44;7.70;99.90
43338;DHT22;28933;52.492;13.434;2023-12-20T15:28:30;7.70;99.90
43338;DHT22;28933;52.492;13.434;2023-12-20T15:31:16;7.70;99.90
43338;DHT22;28933;52.492;13.434;2023-12-20T15:34:02;7.70;99.90
43338;DHT22;28933;52.492;13.434;2023-12-20T15:36:48;7.60;99.90
43338;DHT22;28933;52.492;13.434;2023-12-20T15:39:34;7.60;99.90
43338;DHT22;28933;52.492;13.434;2023-12-20T15:42:20;7.60;99.90
43338;DHT22;28933;52.492;13.434;2023-12-20T15:45:07;7.60;99.90
43338;DHT22;28933;52.492;13.434;2023-12-20T15:47:53;7.60;99.90
43338;DHT22;28933;52.492;13.434;2023-12-20T15:50:39;7.50;99.90
43338;DHT22;28933;52.492;13.434;2023-12-20T15:53:25;7.50;99.90
43338;DHT22;28933;52.492;13.434;2023-12-20T15:56:11;7.40;99.90
43338;DHT22;28933;52.492;13.434;2023-12-20T15:58:57;7.40;99.90
43338;DHT22;28933;52.492;13.434;2023-12-20T16:01:44;7.40;99.90
43338;DHT22;28933;52.492;13.434;2023-12-20T16:04:30;7.30;99.90
43338;DHT22;28933;52.492;13.434;2023-12-20T16:07:16;7.30;99.90
43338;DHT22;28933;52.492;13.434;2023-12-20T16:10:02;7.30;99.90
43338;DHT22;28933;52.492;13.434;2023-12-20T16:12:49;7.30;99.90
43338;DHT22;28933;52.492;13.434;2023-12-20T16:15:35;7.30;99.90
43338;DHT22;28933;52.492;13.434;2023-12-20T16:18:21;7.20;99.90
43338;DHT22;28933;52.492;13.434;2023-12-20T16:21:07;7.20;99.90
43338;DHT22;28933;52.492;13.434;2023-12-20T16:23:53;7.20;99.90
43338;DHT22;28933;52.492;13.434;2023-12-20T16:26:39;7.20;99.90
43338;DHT22;28933;52.492;13.434;2023-12-20T16:29:26;7.20;99.90
43338;DHT22;28933;52.492;13.434;2023-12-20T16:32:12;7.20;99.90
43338;DHT22;28933;52.492;13.434;2023-12-20T16:34:58;7.20;99.90
43338;DHT22;28933;52.492;13.434;2023-12-20T16:37:45;7.20;99.90
43338;DHT22;28933;52.492;13.434;2023-12-20T16:40:31;7.10;99.90
43338;DHT22;28933;52.492;13.434;2023-12-20T16:43:17;7.10;99.90
43338;DHT22;28933;52.492;13.434;2023-12-20T16:46:03;7.10;99.90
43338;DHT22;28933;52.492;13.434;2023-12-20T16:48:49;7.10;99.90
43338;DHT22;28933;52.492;13.434;2023-12-20T16:51:35;7.20;99.90
43338;DHT22;28933;52.492;13.434;2023-12-20T16:54:21;7.10;99.90
43338;DHT22;28933;52.492;13.434;2023-12-20T16:57:07;7.10;99.90
43338;DHT22;28933;52.492;13.434;2023-12-20T16:59:52;7.10;99.90
43338;DHT22;28933;52.492;13.434;2023-12-20T17:02:38;7.20;99.90
43338;DHT22;28933;52.492;13.434;2023-12-20T17:05:25;7.10;99.90
43338;DHT22;28933;52.492;13.434;2023-12-20T17:08:11;7.20;99.90
43338;DHT22;28933;52.492;13.434;2023-12-20T17:10:57;7.20;99.90
43338;DHT22;28933;52.492;13.434;2023-12-20T17:13:43;7.20;99.90
43338;DHT22;28933;52.492;13.434;2023-12-20T17:16:29;7.20;99.90
43338;DHT22;28933;52.492;13.434;2023-12-20T17:19:15;7.10;99.90
43338;DHT22;28933;52.492;13.434;2023-12-20T17:22:01;7.20;99.90
43338;DHT22;28933;52.492;13.434;2023-12-20T17:24:49;7.20;99.90
43338;DHT22;28933;52.492;13.434;2023-12-20T17:27:35;7.20;99.90
43338;DHT22;28933;52.492;13.434;2023-12-20T17:30:21;7.30;99.90
43338;DHT22;28933;52.492;13.434;2023-12-20T17:33:07;7.30;99.90
43338;DHT22;28933;52.492;13.434;2023-12-20T17:35:52;7.20;99.90
43338;DHT22;28933;52.492;13.434;2023-12-20T17:38:42;7.40;99.90